Time;durP1;ratioP1;P1;durP2;ratioP2;P2;SDS_P1;SDS_P2;PMS_P1;PMS_P2;Temp;Humidity;BMP_temperature;BMP_pressure;BME280_temperature;BME280_humidity;BME280_pressure;Samples;Min_cycle;Max_cycle;Signal;HPM_P1;HPM_P2
2024/03/22 00:01:06;;;;;;;41.30;21.00;;;9.30;99.90;;;;;;5014792;28;20030;-76
2024/03/22 00:03:32;;;;;;;45.03;20.55;;;9.30;99.90;;;;;;5013626;28;20045;-76
2024/03/22 00:05:58;;;;;;;47.20;20.90;;;9.30;99.90;;;;;;5013889;28;20111;-75
2024/03/22 00:08:23;;;;;;;39.35;20.63;;;9.30;99.90;;;;;;5012895;28;20483;-75
2024/03/22 00:10:49;;;;;;;44.65;21.73;;;9.40;99.90;;;;;;5014752;28;20026;-76
2024/03/22 00:13:14;;;;;;;49.80;22.67;;;9.40;99.90;;;;;;5014283;28;20026;-76
2024/03/22 00:15:42;;;;;;;44.45;22.92;;;9.40;99.90;;;;;;5012619;28;20065;-76
2024/03/22 00:18:07;;;;;;;45.70;21.35;;;9.40;99.90;;;;;;5013386;28;20045;-78
2024/03/22 00:20:33;;;;;;;46.80;22.20;;;9.40;99.90;;;;;;5014255;28;20030;-77
2024/03/22 00:22:59;;;;;;;46.22;23.50;;;9.40;99.90;;;;;;5013444;28;20018;-75
2024/03/22 00:25:24;;;;;;;40.63;21.50;;;9.40;99.90;;;;;;5012962;28;20029;-76
2024/03/22 00:27:50;;;;;;;48.60;23.02;;;9.40;99.90;;;;;;5013211;28;20021;-75
2024/03/22 00:30:15;;;;;;;45.90;21.50;;;9.40;99.90;;;;;;5013015;28;20050;-76
2024/03/22 00:32:44;;;;;;;47.97;23.27;;;9.40;99.90;;;;;;5012382;28;20022;-78
2024/03/22 00:35:10;;;;;;;41.72;21.05;;;9.40;99.90;;;;;;5012787;28;20040;-76
2024/03/22 00:37:35;;;;;;;53.05;25.35;;;9.40;99.90;;;;;;5013767;28;20050;-76
2024/03/22 00:40:01;;;;;;;56.83;26.38;;;9.40;99.90;;;;;;5014428;28;20473;-77
2024/03/22 00:42:27;;;;;;;45.50;23.50;;;9.40;99.90;;;;;;5012261;28;20023;-75
2024/03/22 00:44:52;;;;;;;53.00;26.23;;;9.50;99.90;;;;;;5014068;28;20430;-76
2024/03/22 00:47:18;;;;;;;50.80;24.55;;;9.40;99.90;;;;;;5012781;28;21019;-76
2024/03/22 00:49:43;;;;;;;51.95;26.25;;;9.50;99.90;;;;;;5013018;28;20093;-76
2024/03/22 00:52:09;;;;;;;52.45;25.92;;;9.40;99.90;;;;;;5012473;28;20415;-79
2024/03/22 00:54:34;;;;;;;53.33;26.38;;;9.40;99.90;;;;;;5013437;28;20048;-76
2024/03/22 00:57:01;;;;;;;46.22;24.63;;;9.50;99.90;;;;;;5011854;28;20057;-76
2024/03/22 00:59:26;;;;;;;55.97;27.52;;;9.50;99.90;;;;;;5013455;28;20030;-78
2024/03/22 01:01:52;;;;;;;51.58;25.88;;;9.50;99.90;;;;;;5013393;28;20069;-77
2024/03/22 01:04:18;;;;;;;54.83;26.23;;;9.50;99.90;;;;;;5013302;28;20081;-78
2024/03/22 01:06:44;;;;;;;51.45;23.55;;;9.50;99.90;;;;;;5013190;28;20499;-75
2024/03/22 01:09:09;;;;;;;53.72;27.67;;;9.50;99.90;;;;;;5014099;28;20029;-77
2024/03/22 01:11:35;;;;;;;51.55;25.55;;;9.50;99.90;;;;;;5011953;28;20073;-78
2024/03/22 01:14:01;;;;;;;57.33;28.58;;;9.50;99.90;;;;;;5013698;28;20022;-76
2024/03/22 01:16:26;;;;;;;55.42;28.70;;;9.50;99.90;;;;;;5012023;28;20022;-77
2024/03/22 01:18:52;;;;;;;56.55;29.10;;;9.70;99.90;;;;;;5011752;28;20460;-77
2024/03/22 01:21:18;;;;;;;61.40;30.25;;;9.50;99.90;;;;;;5013553;28;20030;-78
2024/03/22 01:23:43;;;;;;;59.10;28.00;;;9.60;99.90;;;;;;5011695;28;20018;-77
2024/03/22 01:26:09;;;;;;;59.88;30.08;;;9.60;99.90;;;;;;5011484;28;20030;-78
2024/03/22 01:28:35;;;;;;;61.90;30.73;;;9.60;99.90;;;;;;5026620;28;20045;-78
2024/03/22 01:31:00;;;;;;;66.28;31.90;;;9.60;99.90;;;;;;5011585;28;20032;-78
2024/03/22 01:33:26;;;;;;;63.05;31.05;;;9.60;99.90;;;;;;5011775;28;20133;-77
2024/03/22 01:35:52;;;;;;;59.08;31.27;;;9.60;99.90;;;;;;5011595;28;20038;-80
2024/03/22 01:38:17;;;;;;;68.45;31.00;;;9.50;99.90;;;;;;5011503;28;20069;-77
2024/03/22 01:40:43;;;;;;;62.17;30.25;;;9.60;99.90;;;;;;5012032;28;20032;-77
2024/03/22 01:43:11;;;;;;;65.63;31.75;;;9.60;99.90;;;;;;5012425;28;20061;-76
2024/03/22 01:45:37;;;;;;;66.88;33.13;;;9.60;99.90;;;;;;5012743;28;20023;-76
2024/03/22 01:48:03;;;;;;;64.50;32.58;;;9.60;99.90;;;;;;5011730;28;20054;-78
2024/03/22 01:50:29;;;;;;;70.22;34.40;;;9.60;99.90;;;;;;5011957;28;20029;-76
2024/03/22 01:52:55;;;;;;;71.00;35.25;;;9.60;99.90;;;;;;5011606;28;20061;-76
2024/03/22 01:55:21;;;;;;;66.13;30.98;;;9.60;99.90;;;;;;5012931;28;20033;-75
2024/03/22 01:57:47;;;;;;;69.80;34.33;;;9.60;99.90;;;;;;5012207;28;20048;-77
2024/03/22 02:00:13;;;;;;;75.55;35.65;;;9.70;99.90;;;;;;5012958;28;20018;-76
2024/03/22 02:02:39;;;;;;;71.53;34.15;;;9.70;99.90;;;;;;5011478;28;20057;-79
2024/03/22 02:05:15;;;;;;;75.35;36.47;;;9.70;99.90;;;;;;5011376;28;20030;-79
2024/03/22 02:07:42;;;;;;;75.28;36.03;;;9.70;99.90;;;;;;5011300;28;21512;-76
2024/03/22 02:10:10;;;;;;;71.82;37.30;;;9.70;99.90;;;;;;5012802;28;20464;-75
2024/03/22 02:12:37;;;;;;;75.30;37.80;;;9.70;99.90;;;;;;5011947;28;20023;-77
2024/03/22 02:15:03;;;;;;;82.47;39.10;;;9.70;99.90;;;;;;5011512;28;20018;-79
2024/03/22 02:17:28;;;;;;;76.95;36.72;;;9.70;99.90;;;;;;5011215;28;20068;-78
2024/03/22 02:19:54;;;;;;;85.95;39.58;;;9.70;99.90;;;;;;5010085;28;20026;-76
2024/03/22 02:22:20;;;;;;;80.97;36.83;;;9.70;99.90;;;;;;5012910;28;20052;-77
2024/03/22 02:24:45;;;;;;;79.30;39.50;;;9.70;99.90;;;;;;5011735;28;20073;-77
2024/03/22 02:27:11;;;;;;;72.07;34.70;;;9.80;99.90;;;;;;5012028;28;20034;-78
2024/03/22 02:29:36;;;;;;;78.03;35.10;;;9.70;99.90;;;;;;5011693;28;20026;-77
2024/03/22 02:32:03;;;;;;;83.60;38.10;;;9.80;99.90;;;;;;5012370;28;20026;-74
2024/03/22 02:34:29;;;;;;;86.45;41.42;;;9.80;99.90;;;;;;5019023;28;20523;-78
2024/03/22 02:36:54;;;;;;;83.20;39.55;;;9.60;99.90;;;;;;5012279;28;20029;-78
2024/03/22 02:39:20;;;;;;;80.70;39.97;;;9.80;99.90;;;;;;5014948;28;20037;-77
2024/03/22 02:41:45;;;;;;;84.85;38.47;;;9.80;99.90;;;;;;5014975;28;20231;-78
2024/03/22 02:44:11;;;;;;;83.03;41.67;;;9.80;99.90;;;;;;5015112;28;20066;-77
2024/03/22 02:46:36;;;;;;;83.07;39.95;;;9.80;99.90;;;;;;5015351;28;20032;-80
2024/03/22 02:49:02;;;;;;;87.20;39.22;;;9.80;99.90;;;;;;5014504;28;20023;-75
2024/03/22 02:51:28;;;;;;;94.68;44.03;;;9.80;99.90;;;;;;5015983;28;20026;-79
2024/03/22 02:53:54;;;;;;;90.47;41.25;;;9.80;99.90;;;;;;5015107;28;20030;-77
2024/03/22 02:56:20;;;;;;;97.75;44.53;;;9.70;99.90;;;;;;5014303;28;20022;-76
2024/03/22 02:58:45;;;;;;;91.43;40.85;;;9.70;99.90;;;;;;5015811;28;20085;-78
2024/03/22 03:01:11;;;;;;;97.13;44.00;;;9.60;99.90;;;;;;5014708;28;20470;-79
2024/03/22 03:03:37;;;;;;;101.53;45.17;;;9.60;99.90;;;;;;5015552;28;20057;-79
2024/03/22 03:06:02;;;;;;;99.35;44.60;;;9.60;99.90;;;;;;5014937;28;20022;-80
2024/03/22 03:08:28;;;;;;;100.93;43.08;;;9.60;99.90;;;;;;5014897;28;20022;-79
2024/03/22 03:10:54;;;;;;;97.47;44.22;;;9.60;99.90;;;;;;5014198;28;20049;-78
2024/03/22 03:13:19;;;;;;;98.22;44.58;;;9.60;99.90;;;;;;5014359;28;20034;-77
2024/03/22 03:15:45;;;;;;;103.30;46.47;;;9.60;99.90;;;;;;5021266;28;20023;-78
2024/03/22 03:18:10;;;;;;;105.63;45.28;;;9.50;99.90;;;;;;5014219;28;20030;-79
2024/03/22 03:20:37;;;;;;;100.53;45.00;;;9.60;99.90;;;;;;5014606;28;20018;-78
2024/03/22 03:23:03;;;;;;;98.35;44.78;;;9.60;99.90;;;;;;5015732;28;20375;-77
2024/03/22 03:25:29;;;;;;;99.07;44.83;;;9.60;99.90;;;;;;5016218;28;20025;-77
2024/03/22 03:27:54;;;;;;;107.53;46.45;;;9.60;99.90;;;;;;5016706;28;21449;-78
2024/03/22 03:30:20;;;;;;;100.32;43.85;;;9.60;99.90;;;;;;5015969;28;20478;-77
2024/03/22 03:32:45;;;;;;;100.00;44.65;;;9.70;99.90;;;;;;5014049;28;20034;-77
2024/03/22 03:35:11;;;;;;;94.72;42.72;;;9.70;99.90;;;;;;5014195;28;20018;-78
2024/03/22 03:37:37;;;;;;;101.82;44.75;;;9.70;99.90;;;;;;5013535;28;20034;-78
2024/03/22 03:40:04;;;;;;;100.22;45.22;;;9.70;99.90;;;;;;5029065;28;20025;-78
2024/03/22 03:42:29;;;;;;;96.57;44.67;;;9.80;99.90;;;;;;5013775;28;20033;-78
2024/03/22 03:44:55;;;;;;;102.88;46.08;;;9.80;99.90;;;;;;5013655;28;20014;-79
2024/03/22 03:47:21;;;;;;;99.30;45.97;;;9.80;99.90;;;;;;5013644;28;20061;-80
2024/03/22 03:49:46;;;;;;;95.82;45.45;;;9.80;99.90;;;;;;5013255;28;20029;-79
2024/03/22 03:52:12;;;;;;;101.75;47.05;;;9.80;99.90;;;;;;5014644;28;20018;-78
2024/03/22 03:54:38;;;;;;;101.80;45.47;;;9.80;99.90;;;;;;5013168;28;20049;-79
2024/03/22 03:57:04;;;;;;;103.40;45.70;;;9.80;99.90;;;;;;5013809;28;20129;-77
2024/03/22 03:59:29;;;;;;;108.90;47.72;;;9.80;99.90;;;;;;5013041;28;20022;-78
2024/03/22 04:01:55;;;;;;;102.65;45.03;;;9.90;99.90;;;;;;5012588;28;20057;-79
2024/03/22 04:04:20;;;;;;;101.47;46.70;;;9.80;99.90;;;;;;5014323;28;20032;-78
2024/03/22 04:06:46;;;;;;;103.97;48.03;;;9.90;99.90;;;;;;5030921;28;20034;-77
2024/03/22 04:09:11;;;;;;;100.88;42.88;;;9.90;99.90;;;;;;5014814;28;20029;-77
2024/03/22 04:11:37;;;;;;;99.90;45.33;;;9.80;99.90;;;;;;5016197;28;20030;-79
2024/03/22 04:14:05;;;;;;;106.65;46.33;;;9.90;99.90;;;;;;5015361;28;20022;-77
2024/03/22 04:16:30;;;;;;;103.72;46.63;;;9.90;99.90;;;;;;5016114;28;20025;-75
2024/03/22 04:18:56;;;;;;;100.50;46.22;;;9.90;99.90;;;;;;5013103;28;20034;-75
2024/03/22 04:21:22;;;;;;;102.43;46.08;;;9.90;99.90;;;;;;5012346;28;20026;-75
2024/03/22 04:23:47;;;;;;;111.10;47.42;;;10.00;99.90;;;;;;5014083;28;20057;-76
2024/03/22 04:26:13;;;;;;;105.35;45.58;;;10.00;99.90;;;;;;5013003;28;20026;-77
2024/03/22 04:28:39;;;;;;;109.15;48.70;;;10.00;99.90;;;;;;5014236;28;20490;-74
2024/03/22 04:31:08;;;;;;;107.45;46.72;;;10.00;99.90;;;;;;5013060;28;20056;-76
2024/03/22 04:33:33;;;;;;;108.90;48.40;;;10.00;99.90;;;;;;5012475;28;20063;-76
2024/03/22 04:36:00;;;;;;;112.40;48.55;;;10.00;99.90;;;;;;5012074;28;20106;-78
2024/03/22 04:38:26;;;;;;;110.63;49.47;;;10.00;99.90;;;;;;5013275;28;20117;-77
2024/03/22 04:40:52;;;;;;;109.68;48.85;;;10.00;99.90;;;;;;5029618;28;20062;-76
2024/03/22 04:43:18;;;;;;;107.15;48.92;;;10.10;99.90;;;;;;5012282;28;20025;-77
2024/03/22 04:45:45;;;;;;;116.05;49.75;;;10.10;99.90;;;;;;5012618;28;20053;-76
2024/03/22 04:48:13;;;;;;;112.78;49.83;;;10.10;99.90;;;;;;5012692;28;20463;-78
2024/03/22 04:50:38;;;;;;;113.18;49.05;;;10.10;99.90;;;;;;5012629;28;20045;-78
2024/03/22 04:53:05;;;;;;;110.22;49.63;;;10.10;99.90;;;;;;5013077;28;20022;-78
2024/03/22 04:55:31;;;;;;;111.32;49.17;;;10.10;99.90;;;;;;5014054;28;20080;-78
2024/03/22 04:57:56;;;;;;;113.97;50.90;;;10.10;99.90;;;;;;5012416;28;20072;-75
2024/03/22 05:00:22;;;;;;;116.60;49.90;;;10.10;99.90;;;;;;5012713;28;20021;-77
2024/03/22 05:02:47;;;;;;;108.18;48.45;;;10.10;99.90;;;;;;5027794;28;20141;-77
2024/03/22 05:05:13;;;;;;;107.70;48.25;;;10.10;99.90;;;;;;5011576;28;20021;-76
2024/03/22 05:07:39;;;;;;;109.30;49.38;;;10.20;99.90;;;;;;5013357;28;20034;-77
2024/03/22 05:10:05;;;;;;;105.50;48.15;;;10.20;99.90;;;;;;5036131;28;20038;-77
2024/03/22 05:12:31;;;;;;;113.35;48.00;;;10.20;99.90;;;;;;5013114;28;20029;-78
2024/03/22 05:14:57;;;;;;;105.13;48.33;;;10.20;99.90;;;;;;5014421;28;20041;-81
2024/03/22 05:17:23;;;;;;;120.30;50.75;;;10.20;99.90;;;;;;5012587;28;20048;-81
2024/03/22 05:19:49;;;;;;;110.75;47.72;;;10.20;99.90;;;;;;5012014;28;20034;-77
2024/03/22 05:22:14;;;;;;;120.18;49.88;;;10.20;99.90;;;;;;5013446;28;20034;-81
2024/03/22 05:24:40;;;;;;;114.00;49.25;;;10.20;99.90;;;;;;5011479;28;20041;-77
2024/03/22 05:27:05;;;;;;;109.57;50.47;;;10.30;99.90;;;;;;5011737;28;20030;-80
2024/03/22 05:29:31;;;;;;;110.97;49.55;;;10.20;99.90;;;;;;5011717;28;20368;-78
2024/03/22 05:31:57;;;;;;;114.22;49.13;;;10.30;99.90;;;;;;5012598;28;20073;-78
2024/03/22 05:34:22;;;;;;;108.47;48.78;;;10.30;99.90;;;;;;5012440;28;20148;-78
2024/03/22 05:36:48;;;;;;;115.40;50.03;;;10.30;99.90;;;;;;5027706;28;20029;-80
2024/03/22 05:39:14;;;;;;;109.50;50.47;;;10.30;99.90;;;;;;5011752;28;20533;-77
2024/03/22 05:41:40;;;;;;;108.28;48.95;;;10.30;99.90;;;;;;5012930;28;20455;-77
2024/03/22 05:44:06;;;;;;;112.90;49.88;;;10.40;99.90;;;;;;5011879;28;20057;-79
2024/03/22 05:46:31;;;;;;;112.68;49.45;;;10.30;99.90;;;;;;5014448;28;20078;-80
2024/03/22 05:48:58;;;;;;;111.03;48.28;;;10.40;99.90;;;;;;5013325;28;20048;-78
2024/03/22 05:51:24;;;;;;;107.88;45.65;;;10.40;99.90;;;;;;5011206;28;20029;-79
2024/03/22 05:53:50;;;;;;;105.65;48.00;;;10.40;99.90;;;;;;5013340;28;20022;-81
2024/03/22 05:56:15;;;;;;;107.35;48.40;;;10.40;99.90;;;;;;5013433;28;20033;-81
2024/03/22 05:58:41;;;;;;;113.78;48.78;;;10.50;99.90;;;;;;5010772;28;20096;-80
2024/03/22 06:01:07;;;;;;;112.90;47.38;;;10.40;99.90;;;;;;5012875;28;20018;-78
2024/03/22 06:03:32;;;;;;;116.97;49.97;;;10.50;99.90;;;;;;5012717;28;20076;-78
2024/03/22 06:06:00;;;;;;;109.75;49.25;;;10.50;99.90;;;;;;5013458;28;20036;-79
2024/03/22 06:08:29;;;;;;;108.63;47.75;;;10.50;99.90;;;;;;5011746;28;20388;-79
2024/03/22 06:10:55;;;;;;;109.63;49.63;;;10.50;99.90;;;;;;5014482;28;20045;-80
2024/03/22 06:13:21;;;;;;;116.68;49.00;;;10.60;99.90;;;;;;5018752;28;20049;-82
2024/03/22 06:15:50;;;;;;;116.22;49.85;;;10.60;99.90;;;;;;5017959;28;20026;-80
2024/03/22 06:18:16;;;;;;;105.80;48.03;;;10.50;99.90;;;;;;5015494;28;20041;-78
2024/03/22 06:20:42;;;;;;;105.25;47.47;;;10.60;99.90;;;;;;5014610;28;20022;-79
2024/03/22 06:23:08;;;;;;;114.20;49.45;;;10.60;99.90;;;;;;5015540;28;20077;-78
2024/03/22 06:25:34;;;;;;;103.45;47.72;;;10.60;99.90;;;;;;5015751;28;20030;-81
2024/03/22 06:28:00;;;;;;;108.30;46.05;;;10.50;99.90;;;;;;5015581;28;20086;-76
2024/03/22 06:30:27;;;;;;;115.78;49.67;;;10.60;99.90;;;;;;5015779;28;20072;-80
2024/03/22 06:32:53;;;;;;;111.05;47.25;;;10.70;99.90;;;;;;5016640;28;20487;-78
2024/03/22 06:35:18;;;;;;;102.20;42.67;;;10.70;99.90;;;;;;5017731;28;20064;-76
2024/03/22 06:37:44;;;;;;;131.95;52.55;;;10.60;99.90;;;;;;5016917;28;20092;-78
2024/03/22 06:40:10;;;;;;;127.03;50.88;;;10.60;99.90;;;;;;5014717;28;20037;-75
2024/03/22 06:42:35;;;;;;;140.55;54.45;;;10.60;99.90;;;;;;5014158;28;20109;-77
2024/03/22 06:45:02;;;;;;;142.85;53.28;;;10.50;99.90;;;;;;5014149;28;20056;-75
2024/03/22 06:47:28;;;;;;;140.82;54.28;;;10.50;99.90;;;;;;5016609;28;20505;-76
2024/03/22 06:49:54;;;;;;;150.73;52.08;;;10.30;99.90;;;;;;5015754;28;20066;-75
2024/03/22 06:52:20;;;;;;;154.93;56.08;;;10.40;99.90;;;;;;5012399;28;20029;-75
2024/03/22 06:54:47;;;;;;;168.13;59.67;;;10.30;99.90;;;;;;5014548;28;20026;-76
2024/03/22 06:57:12;;;;;;;166.30;58.65;;;10.30;99.90;;;;;;5014162;28;20037;-75
2024/03/22 06:59:38;;;;;;;165.10;58.35;;;10.30;99.90;;;;;;5013684;28;20046;-75
2024/03/22 07:02:04;;;;;;;168.18;59.53;;;10.30;99.90;;;;;;5012982;28;20169;-75
2024/03/22 07:04:29;;;;;;;181.82;62.03;;;10.20;99.90;;;;;;5014855;28;20065;-75
2024/03/22 07:06:55;;;;;;;184.15;60.40;;;10.20;99.90;;;;;;5015050;28;20049;-76
2024/03/22 07:09:21;;;;;;;165.75;60.72;;;10.20;99.90;;;;;;5012480;28;20735;-75
2024/03/22 07:11:46;;;;;;;162.45;60.00;;;10.20;99.90;;;;;;5015667;28;20486;-75
2024/03/22 07:14:12;;;;;;;179.30;62.40;;;10.20;99.90;;;;;;5014882;28;20026;-75
2024/03/22 07:16:38;;;;;;;169.43;58.40;;;10.20;99.90;;;;;;5014841;28;20030;-75
2024/03/22 07:19:04;;;;;;;172.98;61.00;;;10.20;99.90;;;;;;5013463;28;20032;-74
2024/03/22 07:21:30;;;;;;;186.05;64.18;;;10.20;99.90;;;;;;5014425;28;20022;-73
2024/03/22 07:23:56;;;;;;;179.43;58.72;;;10.20;99.90;;;;;;5014123;28;20031;-74
2024/03/22 07:26:22;;;;;;;202.52;63.95;;;10.20;99.90;;;;;;5013136;28;20048;-77
2024/03/22 07:28:47;;;;;;;199.15;63.55;;;10.30;99.90;;;;;;5014355;28;20050;-74
2024/03/22 07:31:13;;;;;;;196.57;61.17;;;10.20;99.90;;;;;;5014745;28;20031;-73
2024/03/22 07:33:40;;;;;;;210.77;66.15;;;10.30;99.90;;;;;;5014079;28;20392;-75
2024/03/22 07:36:06;;;;;;;189.00;61.15;;;10.30;99.90;;;;;;5014664;28;20037;-75
2024/03/22 07:38:34;;;;;;;192.18;61.60;;;10.30;99.90;;;;;;5013259;28;20050;-77
2024/03/22 07:41:00;;;;;;;188.90;65.72;;;10.30;99.90;;;;;;5020887;28;20072;-74
2024/03/22 07:43:25;;;;;;;209.32;67.18;;;10.30;99.90;;;;;;5013310;28;20053;-79
2024/03/22 07:45:51;;;;;;;205.70;64.95;;;10.30;99.90;;;;;;5012951;28;20538;-76
2024/03/22 07:48:16;;;;;;;183.80;62.05;;;10.30;99.90;;;;;;5014664;28;20041;-76
2024/03/22 07:50:42;;;;;;;187.85;64.03;;;10.40;99.90;;;;;;5013926;28;20019;-75
2024/03/22 07:53:08;;;;;;;180.18;62.65;;;10.30;99.90;;;;;;5013126;28;20036;-75
2024/03/22 07:55:33;;;;;;;187.52;61.50;;;10.30;99.90;;;;;;5014443;28;20026;-76
2024/03/22 07:57:59;;;;;;;183.32;62.33;;;10.30;99.90;;;;;;5014205;28;20041;-74
2024/03/22 08:00:25;;;;;;;190.88;64.43;;;10.30;99.90;;;;;;5014060;28;20062;-77
2024/03/22 08:02:51;;;;;;;151.27;54.58;;;10.30;99.90;;;;;;5013485;28;20374;-75
2024/03/22 08:05:17;;;;;;;183.50;61.15;;;10.30;99.90;;;;;;5015771;28;20065;-76
2024/03/22 08:07:43;;;;;;;182.73;63.58;;;10.30;99.90;;;;;;5013951;28;20034;-75
2024/03/22 08:10:09;;;;;;;197.65;65.13;;;10.30;99.90;;;;;;5012155;28;20061;-77
2024/03/22 08:12:35;;;;;;;198.00;66.07;;;10.30;99.90;;;;;;5011864;28;20033;-76
2024/03/22 08:15:01;;;;;;;176.68;61.58;;;10.30;99.90;;;;;;5012391;28;20022;-77
2024/03/22 08:17:27;;;;;;;176.85;62.40;;;10.30;99.90;;;;;;5010102;28;20050;-77
2024/03/22 08:19:52;;;;;;;202.63;71.28;;;10.30;99.90;;;;;;5013894;28;20084;-75
2024/03/22 08:22:18;;;;;;;192.95;63.35;;;10.20;99.90;;;;;;5011308;28;20438;-75
2024/03/22 08:24:44;;;;;;;177.57;61.97;;;10.30;99.90;;;;;;5013212;28;20018;-78
2024/03/22 08:27:09;;;;;;;184.98;64.05;;;10.40;99.90;;;;;;5014605;28;20022;-74
2024/03/22 08:29:35;;;;;;;168.52;61.90;;;10.40;99.90;;;;;;5013468;28;20137;-77
2024/03/22 08:32:04;;;;;;;172.52;59.55;;;10.30;99.90;;;;;;5013084;28;20477;-78
2024/03/22 08:34:30;;;;;;;188.38;64.38;;;10.30;99.90;;;;;;5011056;28;20082;-74
2024/03/22 08:36:55;;;;;;;167.18;57.78;;;10.40;99.90;;;;;;5013701;28;20098;-75
2024/03/22 08:39:21;;;;;;;177.75;61.50;;;10.40;99.90;;;;;;5013090;28;20068;-77
2024/03/22 08:41:47;;;;;;;172.82;62.50;;;10.40;99.90;;;;;;5012824;28;20046;-78
2024/03/22 08:44:12;;;;;;;159.05;58.83;;;10.40;99.90;;;;;;5013379;28;20108;-75
2024/03/22 08:46:38;;;;;;;148.23;54.22;;;10.50;99.90;;;;;;5011846;28;20026;-77
2024/03/22 08:49:03;;;;;;;167.77;59.25;;;10.40;99.90;;;;;;5014118;28;20195;-77
2024/03/22 08:51:30;;;;;;;158.63;60.08;;;10.50;99.90;;;;;;5011313;28;20041;-76
2024/03/22 08:53:55;;;;;;;158.23;57.63;;;10.50;99.90;;;;;;5013123;28;20160;-75
2024/03/22 08:56:21;;;;;;;154.63;53.70;;;10.50;99.90;;;;;;5012612;28;20391;-77
2024/03/22 08:58:47;;;;;;;145.63;56.35;;;10.50;99.90;;;;;;5013070;28;20073;-76
2024/03/22 09:01:12;;;;;;;133.52;50.95;;;10.40;99.90;;;;;;5012329;28;20053;-75
2024/03/22 09:03:39;;;;;;;132.75;50.08;;;10.50;99.90;;;;;;5011384;28;20050;-77
2024/03/22 09:06:04;;;;;;;132.45;50.05;;;10.40;99.90;;;;;;5012221;28;20022;-74
2024/03/22 09:08:31;;;;;;;128.57;51.78;;;10.40;99.90;;;;;;5012579;28;20087;-74
2024/03/22 09:10:56;;;;;;;119.30;49.88;;;10.30;99.90;;;;;;5012028;28;20018;-76
2024/03/22 09:13:22;;;;;;;123.93;50.75;;;10.40;99.90;;;;;;5010433;28;20050;-75
2024/03/22 09:15:47;;;;;;;136.52;51.85;;;10.40;99.90;;;;;;5011124;28;20030;-74
2024/03/22 09:18:13;;;;;;;130.65;49.88;;;10.40;99.90;;;;;;5012688;28;20045;-75
2024/03/22 09:20:38;;;;;;;119.00;48.95;;;10.30;99.90;;;;;;5012684;28;20455;-75
2024/03/22 09:23:04;;;;;;;118.75;48.10;;;10.30;99.90;;;;;;5012835;28;20028;-74
2024/03/22 09:25:30;;;;;;;115.88;48.22;;;10.30;99.90;;;;;;5012354;28;20030;-76
2024/03/22 09:27:55;;;;;;;113.85;46.28;;;10.30;99.90;;;;;;5012115;28;20022;-75
2024/03/22 09:30:21;;;;;;;108.10;45.20;;;10.30;99.90;;;;;;5011771;28;20482;-77
2024/03/22 09:32:47;;;;;;;109.57;43.88;;;10.20;99.90;;;;;;5026303;28;20026;-75
2024/03/22 09:35:17;;;;;;;102.57;43.63;;;10.30;99.90;;;;;;5013138;28;20439;-77
2024/03/22 09:37:43;;;;;;;96.70;40.22;;;10.30;99.90;;;;;;5012519;28;20044;-77
2024/03/22 09:40:09;;;;;;;100.38;40.78;;;10.30;99.90;;;;;;5010026;28;20026;-76
2024/03/22 09:42:41;;;;;;;91.75;40.83;;;10.30;99.90;;;;;;5010911;28;20033;-75
2024/03/22 09:45:10;;;;;;;98.57;39.03;;;10.30;99.90;;;;;;5012314;28;20025;-77
2024/03/22 09:47:37;;;;;;;100.60;39.55;;;10.30;99.90;;;;;;5009146;28;20022;-78
2024/03/22 09:50:06;;;;;;;102.65;40.75;;;10.30;99.90;;;;;;5011031;28;20046;-76
2024/03/22 09:52:33;;;;;;;96.45;39.55;;;10.30;99.90;;;;;;5010886;28;20030;-78
2024/03/22 09:54:59;;;;;;;99.80;38.63;;;10.30;99.90;;;;;;5025027;28;20026;-79
2024/03/22 09:57:25;;;;;;;103.90;42.05;;;10.30;99.90;;;;;;5011990;28;20044;-79
2024/03/22 09:59:51;;;;;;;101.90;41.63;;;10.30;99.90;;;;;;5032015;28;20088;-75
2024/03/22 10:02:18;;;;;;;94.93;39.33;;;10.30;99.90;;;;;;5010461;28;20085;-77
2024/03/22 10:04:43;;;;;;;99.32;38.92;;;10.30;99.90;;;;;;5010381;28;20025;-79
2024/03/22 10:07:10;;;;;;;90.75;36.50;;;10.20;99.90;;;;;;5012936;28;20026;-82
2024/03/22 10:09:36;;;;;;;96.43;36.22;;;10.20;99.90;;;;;;5009405;28;20109;-76
2024/03/22 10:12:03;;;;;;;81.97;35.92;;;10.20;99.90;;;;;;5010500;28;20092;-75
2024/03/22 10:14:29;;;;;;;85.93;34.88;;;10.20;99.90;;;;;;5011799;28;20487;-75
2024/03/22 10:16:55;;;;;;;88.43;34.55;;;10.30;99.90;;;;;;5011636;28;20049;-75
2024/03/22 10:19:21;;;;;;;84.00;34.22;;;10.30;99.90;;;;;;5011506;28;20030;-75
2024/03/22 10:22:03;;;;;;;80.10;31.77;;;10.30;99.90;;;;;;5008533;28;20085;-78
2024/03/22 10:24:30;;;;;;;69.90;29.20;;;10.30;99.90;;;;;;5011121;28;20042;-75
2024/03/22 10:26:56;;;;;;;68.13;29.15;;;10.30;99.90;;;;;;5011087;28;21144;-75
2024/03/22 10:29:22;;;;;;;68.07;29.75;;;10.30;99.90;;;;;;5009390;28;20034;-78
2024/03/22 10:31:51;;;;;;;60.15;27.45;;;10.40;99.90;;;;;;5025565;28;20022;-75
2024/03/22 10:34:18;;;;;;;57.60;25.60;;;10.40;99.90;;;;;;5020022;28;20045;-74
2024/03/22 10:36:44;;;;;;;59.05;26.30;;;10.40;99.90;;;;;;5011220;28;20022;-77
2024/03/22 10:39:12;;;;;;;53.10;24.73;;;10.50;99.90;;;;;;5011138;28;20042;-79
2024/03/22 10:41:38;;;;;;;56.70;24.77;;;10.40;99.90;;;;;;5011474;28;20041;-78
2024/03/22 10:44:04;;;;;;;54.45;25.02;;;10.50;99.90;;;;;;5010152;28;20026;-76
2024/03/22 10:46:30;;;;;;;62.47;25.45;;;10.50;99.90;;;;;;5008995;28;20129;-77
2024/03/22 10:48:57;;;;;;;56.83;24.40;;;10.40;99.90;;;;;;5009707;28;20032;-75
2024/03/22 10:51:25;;;;;;;55.83;25.40;;;10.50;99.90;;;;;;5008689;28;20042;-76
2024/03/22 10:53:54;;;;;;;60.55;25.42;;;10.50;99.90;;;;;;5010491;28;20094;-78
2024/03/22 10:56:22;;;;;;;57.88;25.50;;;10.50;99.90;;;;;;5009191;28;20026;-76
2024/03/22 10:58:52;;;;;;;55.63;25.15;;;10.50;99.90;;;;;;5012263;28;20042;-75
2024/03/22 11:01:25;;;;;;;50.15;23.77;;;10.50;99.90;;;;;;5011629;28;20037;-78
2024/03/22 11:04:03;;;;;;;56.45;25.10;;;10.50;99.90;;;;;;5013634;28;20070;-76
2024/03/22 11:06:28;;;;;;;56.60;24.88;;;10.40;99.90;;;;;;5013101;28;20037;-74
2024/03/22 11:08:54;;;;;;;54.03;25.17;;;10.50;99.90;;;;;;5013951;28;20022;-76
2024/03/22 11:11:22;;;;;;;55.75;24.70;;;10.50;99.90;;;;;;5013780;28;20033;-78
2024/03/22 11:13:50;;;;;;;58.88;24.40;;;10.50;99.90;;;;;;5020745;28;20033;-77
2024/03/22 11:16:16;;;;;;;49.65;23.00;;;10.50;99.90;;;;;;5013985;28;20031;-78
2024/03/22 11:18:42;;;;;;;49.78;22.58;;;10.50;99.90;;;;;;5012464;28;20443;-79
2024/03/22 11:21:08;;;;;;;48.13;21.92;;;10.50;99.90;;;;;;5013514;28;20026;-75
2024/03/22 11:23:36;;;;;;;43.50;21.77;;;10.50;99.90;;;;;;5014307;28;20454;-75
2024/03/22 11:26:03;;;;;;;45.22;21.33;;;10.60;99.90;;;;;;5012975;28;20038;-75
2024/03/22 11:28:28;;;;;;;42.90;19.58;;;10.60;99.90;;;;;;5013596;28;20086;-76
2024/03/22 11:30:54;;;;;;;38.80;18.13;;;10.50;99.90;;;;;;5012834;28;20058;-76
2024/03/22 11:33:19;;;;;;;39.55;19.15;;;10.50;99.90;;;;;;5012407;28;20026;-77
2024/03/22 11:35:45;;;;;;;39.45;18.52;;;10.50;99.90;;;;;;5012743;28;20037;-74
2024/03/22 11:38:11;;;;;;;36.20;17.27;;;10.50;99.90;;;;;;5011953;28;20638;-74
2024/03/22 11:40:37;;;;;;;38.17;18.25;;;10.50;99.90;;;;;;5010820;28;20738;-75
2024/03/22 11:43:04;;;;;;;39.28;17.88;;;10.50;99.90;;;;;;5015404;28;20283;-75
2024/03/22 11:45:33;;;;;;;39.20;18.92;;;10.50;99.90;;;;;;5011857;28;20022;-78
2024/03/22 11:48:02;;;;;;;39.60;18.20;;;10.50;99.90;;;;;;5012165;28;20017;-77
2024/03/22 11:50:28;;;;;;;34.88;16.77;;;10.50;99.90;;;;;;5012021;28;20030;-76
2024/03/22 11:52:53;;;;;;;33.00;17.67;;;10.50;99.90;;;;;;5011908;28;20447;-75
2024/03/22 11:55:19;;;;;;;39.42;17.17;;;10.40;99.90;;;;;;5011456;28;20031;-74
2024/03/22 11:57:49;;;;;;;32.83;16.60;;;10.40;99.90;;;;;;5012507;28;20058;-76
2024/03/22 12:00:15;;;;;;;35.08;18.10;;;10.50;99.90;;;;;;5014006;28;20046;-74
2024/03/22 12:02:41;;;;;;;37.15;18.02;;;10.50;99.90;;;;;;5012386;28;20050;-77
2024/03/22 12:05:07;;;;;;;35.42;17.85;;;10.50;99.90;;;;;;5013906;28;20033;-76
2024/03/22 12:07:34;;;;;;;31.25;15.20;;;10.60;99.90;;;;;;5011976;28;20022;-75
2024/03/22 12:09:59;;;;;;;30.38;15.80;;;10.60;99.90;;;;;;5011878;28;20032;-77
2024/03/22 12:12:25;;;;;;;31.35;16.15;;;10.60;99.90;;;;;;5011638;28;20057;-74
2024/03/22 12:14:51;;;;;;;27.38;15.35;;;10.70;99.90;;;;;;5013160;28;20030;-75
2024/03/22 12:17:17;;;;;;;26.75;14.95;;;10.70;99.90;;;;;;5011561;28;20057;-75
2024/03/22 12:19:43;;;;;;;30.73;15.02;;;10.70;99.90;;;;;;5013640;28;20019;-73